createdAt,value
2018-06-10T00:00:39.745Z,15.40
2018-06-10T00:01:39.690Z,14.70
2018-06-10T00:02:39.635Z,15.40
2018-06-10T00:03:39.578Z,15.40
2018-06-10T00:04:39.521Z,16.10
2018-06-10T00:05:39.469Z,15.80
2018-06-10T00:06:39.415Z,14.90
2018-06-10T00:07:39.357Z,16.30
2018-06-10T00:08:39.299Z,15.60
2018-06-10T00:09:39.246Z,15.40
2018-06-10T00:10:39.190Z,15.20
2018-06-10T00:11:39.134Z,15.40
2018-06-10T00:12:39.078Z,15.50
2018-06-10T00:13:39.020Z,15.80
2018-06-10T00:14:38.965Z,16.00
2018-06-10T00:15:38.907Z,15.30
2018-06-10T00:16:38.857Z,16.20
2018-06-10T00:17:38.799Z,15.30
2018-06-10T00:18:38.745Z,15.70
2018-06-10T00:19:38.686Z,15.00
2018-06-10T00:20:38.632Z,15.50
2018-06-10T00:21:38.572Z,15.90
2018-06-10T00:22:38.521Z,15.00
2018-06-10T00:23:38.466Z,15.10
2018-06-10T00:24:38.411Z,15.80
2018-06-10T00:25:38.355Z,15.00
2018-06-10T00:26:38.295Z,16.40
2018-06-10T00:27:38.241Z,15.30
2018-06-10T00:28:38.188Z,15.40
2018-06-10T00:29:38.137Z,14.70
2018-06-10T00:30:38.073Z,15.60
2018-06-10T00:31:38.018Z,15.50
2018-06-10T00:32:37.960Z,15.80
2018-06-10T00:33:37.907Z,16.00
2018-06-10T00:34:37.847Z,15.40
2018-06-10T00:35:37.796Z,15.90
2018-06-10T00:36:37.736Z,14.60
2018-06-10T00:37:37.683Z,15.50
2018-06-10T00:38:37.623Z,16.40
2018-06-10T00:39:37.574Z,14.20
2018-06-10T00:40:37.513Z,16.50
2018-06-10T00:41:37.456Z,15.70
2018-06-10T00:42:37.403Z,15.10
2018-06-10T00:43:37.341Z,15.90
2018-06-10T00:44:37.286Z,15.90
2018-06-10T00:45:37.233Z,16.20
2018-06-10T00:46:37.177Z,15.70
2018-06-10T00:47:37.126Z,16.90
2018-06-10T00:48:37.066Z,16.80
2018-06-10T00:49:37.007Z,16.60
2018-06-10T00:50:36.948Z,16.90
2018-06-10T00:51:36.893Z,17.40
2018-06-10T00:52:36.837Z,15.80
2018-06-10T00:53:36.785Z,18.20
2018-06-10T00:54:36.730Z,16.70
2018-06-10T00:55:36.669Z,16.70
2018-06-10T00:56:36.613Z,17.20
2018-06-10T00:57:36.563Z,16.50
2018-06-10T00:58:36.500Z,16.20
2018-06-10T00:59:36.448Z,17.80
2018-06-10T01:00:36.390Z,17.70
2018-06-10T01:01:36.332Z,17.40
2018-06-10T01:02:36.276Z,16.00
2018-06-10T01:03:36.216Z,18.10
2018-06-10T01:04:36.163Z,16.50
2018-06-10T01:05:36.109Z,17.30
2018-06-10T01:06:36.055Z,17.20
2018-06-10T01:07:35.995Z,17.20
2018-06-10T01:08:35.942Z,17.40
2018-06-10T01:09:35.882Z,18.00
2018-06-10T01:10:35.825Z,16.80
2018-06-10T01:11:35.771Z,17.40
2018-06-10T01:12:35.719Z,17.70
2018-06-10T01:13:35.657Z,16.70
2018-06-10T01:14:35.615Z,17.70
2018-06-10T01:15:35.543Z,18.10
2018-06-10T01:16:35.487Z,17.80
2018-06-10T01:17:35.433Z,17.60
2018-06-10T01:18:35.376Z,18.10
2018-06-10T01:19:35.321Z,17.30
2018-06-10T01:20:35.264Z,17.10
2018-06-10T01:21:35.206Z,17.60
2018-06-10T01:22:35.152Z,17.40
2018-06-10T01:23:35.092Z,18.20
2018-06-10T01:24:35.036Z,18.60
2018-06-10T01:25:34.982Z,18.00
2018-06-10T01:26:34.924Z,18.10
2018-06-10T01:27:34.868Z,17.70
2018-06-10T01:28:34.811Z,18.20
2018-06-10T01:29:34.757Z,17.10
2018-06-10T01:30:34.697Z,17.50
2018-06-10T01:31:34.649Z,17.70
2018-06-10T01:32:34.587Z,17.60
2018-06-10T01:33:34.528Z,17.10
2018-06-10T01:34:34.473Z,16.50
2018-06-10T01:35:34.412Z,16.90
2018-06-10T01:36:34.361Z,17.60
2018-06-10T01:37:34.303Z,16.80
2018-06-10T01:38:34.244Z,17.30
2018-06-10T01:39:34.190Z,18.10
2018-06-10T01:40:34.134Z,16.70
2018-06-10T01:41:34.079Z,18.50
2018-06-10T01:42:34.016Z,17.80
2018-06-10T01:43:33.964Z,18.70
2018-06-10T01:44:33.908Z,17.80
2018-06-10T01:45:33.853Z,17.60
2018-06-10T01:46:33.794Z,17.20
2018-06-10T01:47:33.739Z,17.90
2018-06-10T01:48:33.680Z,17.30
2018-06-10T01:49:33.627Z,16.50
2018-06-10T01:50:33.574Z,17.20
2018-06-10T01:51:33.516Z,17.20
2018-06-10T01:52:33.455Z,17.30
2018-06-10T01:53:33.397Z,17.00
2018-06-10T01:54:33.339Z,17.00
2018-06-10T01:55:33.292Z,17.80
2018-06-10T01:56:33.226Z,16.70
2018-06-10T01:57:33.173Z,18.20
2018-06-10T01:58:33.112Z,17.90
2018-06-10T01:59:33.056Z,17.10
2018-06-10T02:00:32.999Z,16.50
2018-06-10T02:01:32.944Z,17.80
2018-06-10T02:02:32.888Z,17.20
2018-06-10T02:03:32.829Z,17.60
2018-06-10T02:04:32.774Z,16.80
2018-06-10T02:05:32.719Z,18.30
2018-06-10T02:06:32.661Z,18.10
2018-06-10T02:07:32.602Z,17.70
2018-06-10T02:08:32.546Z,18.60
2018-06-10T02:09:32.491Z,18.50
2018-06-10T02:10:32.434Z,18.80
2018-06-10T02:11:32.377Z,17.80
2018-06-10T02:12:32.322Z,18.00
2018-06-10T02:13:32.261Z,18.50
2018-06-10T02:14:32.204Z,18.40
2018-06-10T02:15:32.149Z,19.10
2018-06-10T02:16:32.093Z,17.30
2018-06-10T02:17:32.032Z,18.40
2018-06-10T02:18:31.976Z,18.10
2018-06-10T02:19:31.920Z,19.80
2018-06-10T02:20:31.864Z,18.80
2018-06-10T02:21:31.809Z,18.90
2018-06-10T02:22:31.752Z,18.20
2018-06-10T02:23:31.695Z,17.50
2018-06-10T02:24:31.643Z,17.60
2018-06-10T02:25:31.577Z,17.00
2018-06-10T02:26:31.520Z,16.50
2018-06-10T02:27:31.464Z,17.80
2018-06-10T02:28:31.410Z,16.90
2018-06-10T02:29:31.354Z,17.50
2018-06-10T02:30:31.295Z,17.30
2018-06-10T02:31:31.242Z,17.60
2018-06-10T02:32:31.179Z,16.50
2018-06-10T02:33:31.124Z,17.50
2018-06-10T02:34:31.077Z,18.10
2018-06-10T02:35:31.011Z,16.80
2018-06-10T02:36:30.954Z,17.00
2018-06-10T02:37:30.896Z,17.70
2018-06-10T02:38:30.840Z,17.50
2018-06-10T02:39:30.782Z,17.10
2018-06-10T02:40:30.723Z,17.00
2018-06-10T02:41:30.668Z,17.60
2018-06-10T02:42:30.611Z,16.00
2018-06-10T02:43:30.554Z,14.90
2018-06-10T02:44:30.500Z,15.50
2018-06-10T02:45:30.439Z,15.30
2018-06-10T02:46:30.381Z,15.80
2018-06-10T02:47:30.325Z,15.50
2018-06-10T02:48:30.274Z,16.70
2018-06-10T02:49:30.210Z,15.70
2018-06-10T02:50:30.156Z,14.80
2018-06-10T02:51:30.097Z,15.60
2018-06-10T02:52:30.039Z,15.50
2018-06-10T02:53:29.984Z,16.00
2018-06-10T02:54:29.924Z,15.50
2018-06-10T02:55:29.871Z,15.40
2018-06-10T02:56:29.811Z,15.40
2018-06-10T02:57:29.751Z,16.30
2018-06-10T02:58:29.695Z,16.20
2018-06-10T02:59:29.638Z,15.00
2018-06-10T03:00:29.590Z,15.10
2018-06-10T03:01:29.535Z,15.00
2018-06-10T03:02:29.471Z,16.00
2018-06-10T03:03:29.409Z,15.90
2018-06-10T03:04:29.353Z,15.10
2018-06-10T03:05:29.301Z,17.20
2018-06-10T03:06:29.249Z,15.30
2018-06-10T03:07:29.184Z,15.30
2018-06-10T03:08:29.126Z,16.00
2018-06-10T03:09:29.071Z,16.30
2018-06-10T03:10:29.008Z,16.00
2018-06-10T03:11:28.950Z,16.30
2018-06-10T03:12:28.892Z,17.80
2018-06-10T03:13:28.843Z,15.20
2018-06-10T03:14:28.779Z,16.30
2018-06-10T03:15:28.735Z,15.60
2018-06-10T03:16:28.669Z,16.40
2018-06-10T03:17:28.610Z,16.70
2018-06-10T03:18:28.558Z,17.00
2018-06-10T03:19:28.496Z,16.80
2018-06-10T03:20:28.438Z,16.70
2018-06-10T03:21:28.383Z,17.60
2018-06-10T03:22:28.324Z,17.10
2018-06-10T03:23:28.262Z,17.40
2018-06-10T03:24:28.209Z,16.60
2018-06-10T03:25:28.160Z,16.30
2018-06-10T03:26:28.097Z,17.40
2018-06-10T03:27:28.042Z,17.40
2018-06-10T03:28:27.982Z,19.20
2018-06-10T03:29:27.926Z,19.90
2018-06-10T03:30:27.864Z,20.10
2018-06-10T03:31:27.807Z,19.30
2018-06-10T03:32:27.752Z,20.10
2018-06-10T03:33:27.693Z,21.00
2018-06-10T03:34:27.639Z,21.40
2018-06-10T03:35:27.577Z,20.90
2018-06-10T03:36:27.524Z,21.60
2018-06-10T03:37:27.467Z,21.50
2018-06-10T03:38:27.413Z,21.40
2018-06-10T03:39:27.354Z,21.90
2018-06-10T03:40:27.298Z,21.60
2018-06-10T03:41:27.237Z,21.80
2018-06-10T03:42:27.181Z,21.90
2018-06-10T03:43:27.123Z,21.70
2018-06-10T03:44:27.064Z,21.40
2018-06-10T03:45:27.010Z,21.00
2018-06-10T03:46:26.949Z,21.60
2018-06-10T03:47:26.894Z,21.10
2018-06-10T03:48:26.839Z,22.10
2018-06-10T03:49:26.779Z,22.40
2018-06-10T03:50:26.721Z,23.10
2018-06-10T03:51:26.664Z,22.60
2018-06-10T03:52:26.608Z,22.70
2018-06-10T03:53:26.550Z,21.90
2018-06-10T03:54:26.492Z,23.00
2018-06-10T03:55:26.436Z,22.10
2018-06-10T03:56:26.383Z,22.10
2018-06-10T03:57:26.324Z,21.90
2018-06-10T03:58:26.268Z,22.20
2018-06-10T03:59:26.212Z,22.40
2018-06-10T04:00:26.152Z,22.50
2018-06-10T04:01:26.092Z,22.60
2018-06-10T04:02:26.043Z,22.40
2018-06-10T04:03:25.976Z,21.80
2018-06-10T04:04:25.927Z,21.50
2018-06-10T04:05:25.868Z,23.20
2018-06-10T04:06:25.811Z,22.80
2018-06-10T04:07:25.750Z,22.10
2018-06-10T04:08:25.698Z,21.70
2018-06-10T04:09:25.638Z,22.50
2018-06-10T04:10:25.580Z,21.80
2018-06-10T04:11:25.523Z,22.30
2018-06-10T04:12:25.470Z,22.50
2018-06-10T04:13:25.408Z,21.90
2018-06-10T04:14:25.349Z,21.30
2018-06-10T04:15:25.297Z,22.50
2018-06-10T04:16:25.235Z,23.00
2018-06-10T04:17:25.181Z,22.10
2018-06-10T04:18:25.124Z,23.10
2018-06-10T04:19:25.076Z,22.90
2018-06-10T04:20:25.012Z,22.70
2018-06-10T04:21:24.952Z,21.80
2018-06-10T04:22:24.895Z,23.60
2018-06-10T04:23:24.839Z,21.70
2018-06-10T04:24:24.784Z,21.90
2018-06-10T04:25:24.724Z,23.50
2018-06-10T04:26:24.665Z,22.70
2018-06-10T04:27:24.610Z,23.10
2018-06-10T04:28:24.556Z,22.60
2018-06-10T04:29:24.498Z,22.80
2018-06-10T04:30:24.442Z,23.60
2018-06-10T04:31:24.383Z,22.40
2018-06-10T04:32:24.326Z,22.50
2018-06-10T04:33:24.269Z,23.80
2018-06-10T04:34:24.210Z,24.10
2018-06-10T04:35:24.154Z,22.70
2018-06-10T04:36:24.098Z,22.50
2018-06-10T04:37:24.044Z,24.10
2018-06-10T04:38:23.984Z,23.30
2018-06-10T04:39:23.927Z,23.60
2018-06-10T04:40:23.871Z,23.70
2018-06-10T04:41:23.816Z,23.80
2018-06-10T04:42:23.763Z,24.10
2018-06-10T04:43:23.702Z,25.30
2018-06-10T04:44:23.650Z,24.50
2018-06-10T04:45:23.590Z,25.00
2018-06-10T04:46:23.528Z,25.60
2018-06-10T04:47:23.476Z,25.90
2018-06-10T04:48:23.416Z,27.60
2018-06-10T04:49:23.360Z,28.80
2018-06-10T04:50:23.304Z,27.40
2018-06-10T04:51:23.248Z,27.70
2018-06-10T04:52:23.193Z,26.90
2018-06-10T04:53:23.137Z,27.70
2018-06-10T04:54:23.074Z,27.40
2018-06-10T04:55:23.024Z,27.40
2018-06-10T04:56:22.964Z,28.10
2018-06-10T04:57:22.906Z,28.30
2018-06-10T04:58:22.849Z,28.80
2018-06-10T04:59:22.794Z,30.80
2018-06-10T05:00:22.739Z,29.30
2018-06-10T05:01:22.683Z,27.90
2018-06-10T05:02:22.623Z,27.30
2018-06-10T05:03:22.569Z,28.00
2018-06-10T05:04:22.510Z,28.60
2018-06-10T05:05:22.455Z,31.00
2018-06-10T05:06:22.397Z,29.70
2018-06-10T05:07:22.339Z,30.50
2018-06-10T05:08:22.284Z,30.20
2018-06-10T05:09:22.230Z,29.70
2018-06-10T05:10:22.173Z,31.20
2018-06-10T05:11:22.115Z,30.70
2018-06-10T05:12:22.057Z,32.80
2018-06-10T05:13:22.006Z,31.10
2018-06-10T05:14:21.950Z,30.70
2018-06-10T05:15:21.890Z,33.10
2018-06-10T05:16:21.834Z,31.80
2018-06-10T05:17:21.775Z,31.10
2018-06-10T05:18:21.719Z,30.30
2018-06-10T05:19:21.664Z,29.60
2018-06-10T05:20:21.605Z,29.40
2018-06-10T05:21:21.553Z,28.10
2018-06-10T05:22:21.495Z,27.30
2018-06-10T05:23:21.437Z,25.20
2018-06-10T05:24:21.383Z,27.00
2018-06-10T05:25:21.322Z,25.00
2018-06-10T05:26:21.268Z,25.00
2018-06-10T05:27:21.213Z,24.80
2018-06-10T05:28:21.157Z,25.60
2018-06-10T05:29:21.099Z,23.60
2018-06-10T05:30:21.042Z,24.00
2018-06-10T05:31:20.987Z,23.70
2018-06-10T05:32:20.930Z,23.60
2018-06-10T05:33:20.876Z,25.20
2018-06-10T05:34:20.820Z,23.40
2018-06-10T05:35:20.766Z,24.30
2018-06-10T05:36:20.708Z,24.10
2018-06-10T05:37:20.649Z,24.00
2018-06-10T05:38:20.593Z,25.80
2018-06-10T05:39:20.538Z,24.80
2018-06-10T05:40:20.483Z,25.40
2018-06-10T05:41:20.429Z,24.50
2018-06-10T05:42:20.372Z,25.20
2018-06-10T05:43:20.314Z,25.40
2018-06-10T05:44:20.257Z,25.80
2018-06-10T05:45:20.205Z,24.20
2018-06-10T05:46:20.152Z,25.10
2018-06-10T05:47:20.095Z,25.20
2018-06-10T05:48:20.040Z,27.00
2018-06-10T05:49:19.981Z,25.30
2018-06-10T05:50:19.923Z,25.40
2018-06-10T05:51:19.899Z,26.70
2018-06-10T05:52:19.814Z,25.20
2018-06-10T05:53:19.763Z,27.60
2018-06-10T05:54:19.706Z,28.00
2018-06-10T05:55:19.650Z,27.70
2018-06-10T05:56:19.600Z,26.90
2018-06-10T05:57:19.541Z,27.80
2018-06-10T05:58:19.483Z,28.50
2018-06-10T05:59:19.433Z,27.10
2018-06-10T06:00:19.374Z,27.30
2018-06-10T06:01:19.325Z,27.30
2018-06-10T06:02:19.263Z,27.70
2018-06-10T06:03:19.205Z,27.10
2018-06-10T06:04:19.158Z,25.50
2018-06-10T06:05:19.098Z,26.90
2018-06-10T06:06:19.049Z,27.00
2018-06-10T06:07:18.992Z,25.20
2018-06-10T06:08:18.937Z,25.20
2018-06-10T06:09:18.880Z,26.10
2018-06-10T06:10:18.824Z,23.90
2018-06-10T06:11:18.775Z,23.90
2018-06-10T06:12:18.721Z,23.40
2018-06-10T06:13:18.707Z,23.80
2018-06-10T06:14:18.615Z,23.10
2018-06-10T06:15:18.552Z,23.30
2018-06-10T06:16:18.500Z,23.80
2018-06-10T06:17:18.448Z,22.10
2018-06-10T06:18:18.395Z,22.70
2018-06-10T06:19:18.341Z,22.60
2018-06-10T06:20:18.287Z,21.50
2018-06-10T06:21:18.231Z,22.10
2018-06-10T06:22:18.177Z,22.10
2018-06-10T06:23:18.123Z,21.40
2018-06-10T06:24:18.080Z,23.00
2018-06-10T06:25:18.019Z,23.30
2018-06-10T06:26:17.961Z,21.00
2018-06-10T06:27:17.912Z,23.30
2018-06-10T06:28:17.853Z,22.70
2018-06-10T06:29:17.797Z,21.80
2018-06-10T06:30:17.749Z,20.20
2018-06-10T06:31:17.688Z,21.70
2018-06-10T06:32:17.638Z,21.50
2018-06-10T06:33:17.627Z,21.20
2018-06-10T06:34:17.531Z,20.50
2018-06-10T06:35:17.475Z,20.70
2018-06-10T06:36:17.420Z,20.70
2018-06-10T06:37:17.368Z,20.00
2018-06-10T06:38:17.312Z,18.90
2018-06-10T06:39:17.264Z,19.10
2018-06-10T06:40:17.206Z,18.70
2018-06-10T06:41:17.150Z,19.10
2018-06-10T06:42:17.101Z,19.30
2018-06-10T06:43:17.045Z,19.30
2018-06-10T06:44:16.990Z,20.40
2018-06-10T06:45:16.940Z,18.20
2018-06-10T06:46:16.888Z,18.60
2018-06-10T06:47:16.832Z,18.60
2018-06-10T06:48:16.776Z,18.00
2018-06-10T06:49:16.722Z,17.60
2018-06-10T06:50:16.671Z,18.70
2018-06-10T06:51:16.617Z,18.80
2018-06-10T06:52:16.566Z,18.30
2018-06-10T06:53:16.510Z,18.00
2018-06-10T06:54:16.457Z,18.90
2018-06-10T06:55:16.401Z,17.60
2018-06-10T06:56:16.347Z,17.30
2018-06-10T06:57:16.297Z,16.30
2018-06-10T06:58:16.240Z,15.00
2018-06-10T06:59:16.187Z,15.50
2018-06-10T07:00:16.133Z,15.20
2018-06-10T07:01:16.083Z,16.10
2018-06-10T07:02:16.029Z,16.20
2018-06-10T07:03:15.973Z,14.80
2018-06-10T07:04:15.943Z,14.10
2018-06-10T07:05:15.860Z,15.00
2018-06-10T07:06:15.812Z,15.30
2018-06-10T07:07:15.757Z,15.10
2018-06-10T07:08:15.703Z,15.30
2018-06-10T07:09:15.657Z,14.40
2018-06-10T07:10:15.593Z,14.40
2018-06-10T07:11:15.549Z,14.30
2018-06-10T07:12:15.491Z,13.50
2018-06-10T07:13:15.436Z,13.90
2018-06-10T07:14:15.383Z,14.60
2018-06-10T07:15:15.328Z,15.20
2018-06-10T07:16:15.276Z,14.00
2018-06-10T07:17:15.225Z,14.60
2018-06-10T07:18:15.173Z,14.80
2018-06-10T07:19:15.138Z,28.80
2018-06-10T07:20:15.062Z,16.80
2018-06-10T07:21:15.012Z,14.20
2018-06-10T07:22:14.954Z,15.50
2018-06-10T07:23:14.904Z,14.50
2018-06-10T07:24:14.853Z,14.40
2018-06-10T07:25:14.795Z,14.50
2018-06-10T07:26:14.741Z,14.10
2018-06-10T07:27:14.685Z,14.20
2018-06-10T07:28:14.635Z,14.10
2018-06-10T07:29:14.589Z,13.60
2018-06-10T07:30:14.529Z,13.50
2018-06-10T07:31:14.488Z,15.50
2018-06-10T07:32:14.454Z,15.10
2018-06-10T07:33:14.371Z,14.30
2018-06-10T07:34:14.316Z,13.40
2018-06-10T07:35:14.264Z,13.60
2018-06-10T07:36:14.208Z,16.10
2018-06-10T07:37:14.163Z,13.60
2018-06-10T07:38:14.143Z,13.90
2018-06-10T07:39:14.050Z,12.00
2018-06-10T07:40:14.007Z,13.00
2018-06-10T07:41:13.950Z,12.00
2018-06-10T07:42:13.897Z,17.40
2018-06-10T07:43:13.847Z,12.50
2018-06-10T07:44:13.789Z,11.90
2018-06-10T07:45:13.743Z,12.00
2018-06-10T07:46:13.682Z,11.80
2018-06-10T07:47:13.627Z,12.00
2018-06-10T07:48:13.590Z,12.80
2018-06-10T07:49:13.527Z,12.10
2018-06-10T07:50:13.471Z,12.40
2018-06-10T07:51:13.420Z,12.80
2018-06-10T07:52:13.366Z,12.10
2018-06-10T07:53:13.316Z,11.60
2018-06-10T07:54:13.262Z,11.50
2018-06-10T07:55:13.210Z,11.70
2018-06-10T07:56:13.155Z,10.60
2018-06-10T07:57:13.103Z,10.60
2018-06-10T07:58:13.049Z,10.90
2018-06-10T07:59:12.997Z,10.20
2018-06-10T08:00:12.946Z,12.50
2018-06-10T08:01:12.900Z,10.70
2018-06-10T08:02:12.865Z,10.60
2018-06-10T08:03:12.790Z,10.50
2018-06-10T08:04:12.743Z,15.00
2018-06-10T08:05:12.691Z,13.60
2018-06-10T08:06:12.631Z,11.70
2018-06-10T08:07:12.584Z,12.10
2018-06-10T08:08:12.528Z,12.30
2018-06-10T08:09:12.478Z,11.30
2018-06-10T08:10:12.422Z,10.50
2018-06-10T08:11:12.371Z,8.90
2018-06-10T08:12:12.316Z,9.90
2018-06-10T08:13:12.270Z,8.90
2018-06-10T08:14:12.212Z,10.40
2018-06-10T08:15:12.164Z,12.50
2018-06-10T08:16:12.115Z,8.20
2018-06-10T08:17:12.058Z,10.20
2018-06-10T08:18:12.010Z,7.80
2018-06-10T08:19:11.958Z,8.50
2018-06-10T08:20:11.903Z,8.50
2018-06-10T08:21:11.855Z,9.50
2018-06-10T08:22:11.808Z,9.10
2018-06-10T08:23:11.746Z,8.70
2018-06-10T08:24:11.692Z,8.90
2018-06-10T08:25:11.645Z,8.60
2018-06-10T08:26:11.590Z,8.00
2018-06-10T08:27:11.541Z,8.10
2018-06-10T08:28:11.494Z,9.50
2018-06-10T08:29:11.433Z,8.00
2018-06-10T08:30:11.379Z,8.40
2018-06-10T08:31:11.327Z,11.70
2018-06-10T08:32:11.275Z,9.80
2018-06-10T08:33:11.235Z,9.30
2018-06-10T08:34:11.174Z,10.90
2018-06-10T08:35:11.119Z,9.30
2018-06-10T08:36:11.067Z,8.80
2018-06-10T08:37:11.020Z,9.10
2018-06-10T08:38:10.962Z,8.00
2018-06-10T08:39:10.911Z,8.60
2018-06-10T08:40:10.870Z,10.20
2018-06-10T08:41:10.811Z,8.60
2018-06-10T08:42:10.754Z,8.10
2018-06-10T08:43:10.705Z,11.50
2018-06-10T08:44:10.707Z,12.20
2018-06-10T08:45:10.616Z,9.20
2018-06-10T08:46:10.551Z,10.10
2018-06-10T08:47:10.495Z,9.30
2018-06-10T08:48:10.442Z,9.00
2018-06-10T08:49:10.389Z,10.30
2018-06-10T08:50:10.337Z,9.10
2018-06-10T08:51:10.284Z,9.00
2018-06-10T08:52:10.236Z,11.40
2018-06-10T08:53:10.221Z,9.10
2018-06-10T08:54:10.129Z,7.90
2018-06-10T08:55:10.074Z,8.30
2018-06-10T08:56:10.024Z,9.10
2018-06-10T08:57:09.984Z,8.80
2018-06-10T08:58:09.920Z,10.40
2018-06-10T08:59:09.873Z,10.50
2018-06-10T09:00:09.818Z,10.10
2018-06-10T09:01:09.764Z,10.20
2018-06-10T09:02:09.715Z,8.90
2018-06-10T09:03:09.664Z,8.80
2018-06-10T09:04:09.611Z,9.20
2018-06-10T09:05:09.556Z,8.70
2018-06-10T09:06:09.501Z,8.50
2018-06-10T09:07:09.448Z,8.70
2018-06-10T09:08:09.398Z,8.90
2018-06-10T09:09:09.349Z,9.60
2018-06-10T09:10:09.297Z,10.70
2018-06-10T09:11:09.243Z,9.40
2018-06-10T09:12:09.193Z,7.90
2018-06-10T09:13:09.140Z,8.50
2018-06-10T09:14:09.098Z,8.20
2018-06-10T09:15:09.036Z,7.60
2018-06-10T09:16:08.987Z,30.40
2018-06-10T09:17:08.926Z,15.60
2018-06-10T09:18:08.883Z,27.00
2018-06-10T09:19:08.825Z,25.20
2018-06-10T09:20:08.776Z,16.30
2018-06-10T09:21:08.723Z,18.00
2018-06-10T09:22:08.672Z,21.10
2018-06-10T09:23:08.623Z,12.30
2018-06-10T09:24:08.569Z,10.00
2018-06-10T09:25:08.522Z,11.80
2018-06-10T09:26:08.462Z,17.70
2018-06-10T09:27:08.415Z,14.50
2018-06-10T09:28:08.361Z,15.00
2018-06-10T09:29:08.309Z,15.40
2018-06-10T09:30:08.257Z,8.20
2018-06-10T09:31:08.206Z,11.00
2018-06-10T09:32:08.156Z,11.50
2018-06-10T09:33:08.103Z,13.80
2018-06-10T09:34:08.052Z,11.50
2018-06-10T09:35:08.000Z,10.50
2018-06-10T09:36:07.952Z,8.90
2018-06-10T09:37:07.895Z,8.90
2018-06-10T09:38:07.845Z,9.00
2018-06-10T09:39:07.791Z,7.80
2018-06-10T09:40:07.737Z,7.70
2018-06-10T09:41:07.692Z,9.90
2018-06-10T09:42:07.658Z,8.30
2018-06-10T09:43:07.587Z,9.10
2018-06-10T09:44:07.535Z,9.80
2018-06-10T09:45:07.487Z,7.30
2018-06-10T09:46:07.434Z,9.00
2018-06-10T09:47:07.384Z,11.30
2018-06-10T09:48:07.337Z,8.00
2018-06-10T09:49:07.280Z,9.70
2018-06-10T09:50:07.229Z,8.90
2018-06-10T09:51:07.179Z,10.30
2018-06-10T09:52:07.127Z,8.50
2018-06-10T09:53:07.084Z,11.20
2018-06-10T09:54:07.027Z,7.00
2018-06-10T09:55:07.026Z,6.70
2018-06-10T09:56:06.927Z,8.70
2018-06-10T09:57:06.877Z,5.70
2018-06-10T09:58:06.824Z,11.90
2018-06-10T09:59:06.776Z,12.10
2018-06-10T10:00:06.722Z,12.50
2018-06-10T10:01:06.673Z,9.50
2018-06-10T10:02:06.622Z,8.20
2018-06-10T10:03:06.571Z,6.70
2018-06-10T10:04:06.519Z,6.60
2018-06-10T10:05:06.468Z,7.20
2018-06-10T10:06:06.420Z,6.40
2018-06-10T10:07:06.371Z,6.90
2018-06-10T10:08:06.319Z,7.20
2018-06-10T10:09:06.264Z,6.80
2018-06-10T10:10:06.215Z,6.50
2018-06-10T10:11:06.167Z,6.00
2018-06-10T10:12:06.112Z,6.20
2018-06-10T10:13:06.067Z,7.50
2018-06-10T10:14:06.020Z,6.20
2018-06-10T10:15:05.963Z,6.50
2018-06-10T10:16:05.914Z,7.80
2018-06-10T10:17:05.866Z,7.30
2018-06-10T10:18:05.815Z,6.30
2018-06-10T10:19:05.762Z,6.10
2018-06-10T10:20:05.720Z,6.70
2018-06-10T10:21:05.666Z,6.30
2018-06-10T10:22:05.614Z,7.00
2018-06-10T10:23:05.563Z,6.30
2018-06-10T10:24:05.525Z,6.70
2018-06-10T10:25:05.502Z,5.80
2018-06-10T10:26:05.413Z,6.80
2018-06-10T10:27:05.364Z,5.20
2018-06-10T10:28:05.316Z,6.50
2018-06-10T10:29:05.267Z,7.00
2018-06-10T10:30:05.218Z,6.70
2018-06-10T10:31:05.171Z,6.80
2018-06-10T10:32:05.131Z,6.00
2018-06-10T10:33:05.072Z,5.70
2018-06-10T10:34:05.016Z,6.20
2018-06-10T10:35:04.972Z,7.10
2018-06-10T10:36:04.924Z,6.20
2018-06-10T10:37:04.876Z,6.30
2018-06-10T10:38:04.826Z,6.60
2018-06-10T10:39:04.773Z,6.50
2018-06-10T10:40:04.727Z,6.90
2018-06-10T10:41:04.678Z,7.00
2018-06-10T10:42:04.626Z,6.10
2018-06-10T10:43:04.601Z,6.20
2018-06-10T10:44:04.525Z,6.70
2018-06-10T10:45:04.479Z,7.10
2018-06-10T10:46:04.426Z,6.50
2018-06-10T10:47:04.377Z,6.60
2018-06-10T10:48:04.323Z,6.80
2018-06-10T10:49:26.875Z,6.00
2018-06-10T10:53:09.001Z,7.50
2018-06-10T10:54:08.906Z,6.70
2018-06-10T10:56:03.298Z,7.80
2018-06-10T10:57:03.148Z,7.00
2018-06-10T10:58:57.493Z,7.00
2018-06-10T10:59:57.392Z,7.60
2018-06-10T11:01:52.771Z,7.30
2018-06-10T11:02:52.629Z,7.00
2018-06-10T11:04:46.952Z,7.70
2018-06-10T11:05:46.869Z,8.30
2018-06-10T11:07:41.733Z,7.20
2018-06-10T11:08:41.639Z,7.70
2018-06-10T11:10:37.195Z,7.40
2018-06-10T11:11:35.871Z,6.90
2018-06-10T11:13:29.216Z,7.50
2018-06-10T11:14:29.133Z,6.90
2018-06-10T11:16:22.470Z,7.70
2018-06-10T11:17:22.377Z,7.70
2018-06-10T11:19:16.696Z,7.30
2018-06-10T11:20:16.618Z,7.70
2018-06-10T11:22:10.934Z,7.50
2018-06-10T11:23:10.857Z,7.50
2018-06-10T11:25:05.177Z,7.10
2018-06-10T11:26:05.099Z,7.60
2018-06-10T11:27:05.115Z,8.10
2018-06-10T11:28:04.999Z,7.40
2018-06-10T11:29:04.965Z,7.00
2018-06-10T11:30:04.898Z,7.50
2018-06-10T11:31:04.847Z,6.90
2018-06-10T11:32:04.793Z,7.50
2018-06-10T11:33:04.739Z,7.20
2018-06-10T11:34:04.693Z,6.70
2018-06-10T11:35:04.641Z,7.90
2018-06-10T11:36:04.589Z,7.10
2018-06-10T11:37:04.535Z,7.30
2018-06-10T11:38:04.485Z,7.50
2018-06-10T11:39:04.433Z,7.40
2018-06-10T11:40:04.381Z,6.60
2018-06-10T11:41:04.340Z,6.80
2018-06-10T11:42:04.285Z,10.30
2018-06-10T11:43:04.227Z,15.80
2018-06-10T11:44:04.174Z,12.50
2018-06-10T11:45:04.130Z,8.80
2018-06-10T11:46:04.072Z,13.70
2018-06-10T11:47:04.016Z,29.80
2018-06-10T11:48:03.969Z,22.30
2018-06-10T11:49:03.918Z,12.50
2018-06-10T11:50:03.867Z,15.00
2018-06-10T11:51:03.812Z,22.70
2018-06-10T11:52:03.781Z,18.10
2018-06-10T11:53:03.709Z,13.50
2018-06-10T11:54:03.656Z,12.60
2018-06-10T11:55:03.605Z,12.40
2018-06-10T11:56:03.552Z,10.20
2018-06-10T11:57:03.504Z,9.80
2018-06-10T11:58:03.508Z,10.00
2018-06-10T11:59:03.392Z,10.00
2018-06-10T12:00:03.343Z,11.30
2018-06-10T12:01:03.290Z,12.00
2018-06-10T12:02:03.239Z,11.30
2018-06-10T12:03:03.185Z,10.80
2018-06-10T12:04:03.136Z,11.10
2018-06-10T12:05:03.087Z,12.20
2018-06-10T12:06:03.033Z,12.00
2018-06-10T12:07:02.975Z,12.30
2018-06-10T12:08:02.924Z,11.40
2018-06-10T12:09:02.867Z,11.50
2018-06-10T12:10:02.809Z,11.00
2018-06-10T12:11:02.758Z,10.80
2018-06-10T12:12:02.711Z,10.60
2018-06-10T12:13:02.653Z,12.60
2018-06-10T12:14:02.602Z,11.70
2018-06-10T12:15:02.548Z,12.20
2018-06-10T12:16:02.495Z,14.00
2018-06-10T12:17:02.438Z,12.70
2018-06-10T12:18:02.386Z,12.30
2018-06-10T12:19:02.333Z,12.00
2018-06-10T12:20:02.283Z,11.90
2018-06-10T12:21:02.225Z,12.10
2018-06-10T12:22:02.179Z,12.60
2018-06-10T12:23:02.116Z,13.70
2018-06-10T12:24:02.065Z,11.50
2018-06-10T12:25:02.012Z,11.60
2018-06-10T12:26:01.957Z,13.50
2018-06-10T12:27:01.950Z,12.70
2018-06-10T12:28:01.851Z,12.20
2018-06-10T12:29:01.795Z,11.80
2018-06-10T12:30:01.745Z,11.60
2018-06-10T12:31:01.691Z,11.50
2018-06-10T12:32:01.634Z,11.40
2018-06-10T12:33:01.581Z,9.90
2018-06-10T12:34:01.532Z,10.80
2018-06-10T12:35:01.477Z,10.90
2018-06-10T12:36:01.423Z,11.20
2018-06-10T12:37:01.365Z,12.70
2018-06-10T12:38:01.318Z,11.70
2018-06-10T12:39:01.261Z,11.10
2018-06-10T12:40:01.212Z,12.10
2018-06-10T12:41:01.156Z,11.40
2018-06-10T12:42:01.161Z,11.50
2018-06-10T12:43:01.052Z,10.00
2018-06-10T12:44:01.001Z,9.50
2018-06-10T12:45:00.949Z,9.50
2018-06-10T12:46:00.895Z,11.50
2018-06-10T12:47:00.843Z,9.90
2018-06-10T12:48:00.793Z,10.60
2018-06-10T12:49:00.746Z,9.80
2018-06-10T12:50:00.695Z,10.30
2018-06-10T12:51:00.637Z,9.40
2018-06-10T12:52:00.587Z,9.70
2018-06-10T12:53:00.538Z,9.20
2018-06-10T12:54:00.488Z,9.70
2018-06-10T12:55:01.313Z,9.70
2018-06-10T12:56:00.385Z,9.30
2018-06-10T12:57:00.402Z,8.70
2018-06-10T12:58:00.280Z,9.40
2018-06-10T12:59:00.231Z,8.40
2018-06-10T13:00:00.210Z,8.00
2018-06-10T13:01:00.133Z,7.30
2018-06-10T13:02:00.078Z,7.40
2018-06-10T13:03:00.034Z,7.10
2018-06-10T13:03:59.974Z,6.10
2018-06-10T13:04:59.924Z,7.50
2018-06-10T13:05:59.875Z,7.60
2018-06-10T13:06:59.824Z,7.90
2018-06-10T13:07:59.773Z,6.80
2018-06-10T13:08:59.730Z,7.90
2018-06-10T13:09:59.676Z,7.90
2018-06-10T13:10:59.620Z,9.00